Zylks, Louisiana
Current Conditions -  °F | °C
As of 5:53 AM on Monday 26 Jan 2015 (Local Time) from KTXK Reporting Station
Clear Clear  
Wind Chill: 32°   Ceiling: Unl
Heat Index: 39°   Visibility: 10mi
Dew Point: 32°   Wind: 10mph
Humidity: 76%   Direction: 300°WNW
Pressure: 30.16"   Gusts: NA
Location:  32.9696°N, 93.9801°W
Report Text: KTXK 261153Z 30009KT 10SM CLR 04/00 A3016 RMK AO2 SLP211 T00390000 10078 20039 53008
Loading
Personal Weather Stations






























Interactive Weather Map New forecast layout! Learn more

10-Day Weather Forecast

Advertisements
Track Severe Weather on mobile